Time;durP1;ratioP1;P1;durP2;ratioP2;P2;SDS_P1;SDS_P2;PMS_P1;PMS_P2;Temp;Humidity;BMP_temperature;BMP_pressure;BME280_temperature;BME280_humidity;BME280_pressure;Samples;Min_cycle;Max_cycle;Signal;HPM_P1;HPM_P2
2022/06/12 00:00:27;;;;;;;7.65;6.10;;;;;;;15.79;95.96;98967.63;2596870;28;20401;-82
2022/06/12 00:01:54;;;;;;;8.80;6.80;;;;;;;15.78;96.05;98965.06;2596743;28;20049;-82
2022/06/12 00:03:14;;;;;;;7.30;6.05;;;;;;;15.82;95.54;98964.03;2596638;28;20622;-84
2022/06/12 00:04:29;;;;;;;8.20;7.35;;;;;;;15.79;95.79;98964.16;2596960;28;20059;-82
2022/06/12 00:05:49;;;;;;;11.98;5.88;;;;;;;15.73;96.58;98964.38;2596501;28;20041;-81
2022/06/12 00:07:05;;;;;;;6.72;5.90;;;;;;;15.66;96.90;98956.72;2596637;28;20488;-81
2022/06/12 00:08:21;;;;;;;6.72;6.03;;;;;;;15.66;95.57;98959.38;2596016;28;20045;-85
2022/06/12 00:09:37;;;;;;;8.98;6.32;;;;;;;15.70;96.28;98959.25;2596618;28;20489;-81
2022/06/12 00:10:54;;;;;;;7.40;6.05;;;;;;;15.79;96.07;98958.88;2596536;28;20131;-81
2022/06/12 00:12:10;;;;;;;8.15;5.78;;;;;;;15.86;96.52;98960.31;2596594;28;20463;-81
2022/06/12 00:13:31;;;;;;;7.38;5.90;;;;;;;15.81;96.08;98957.03;2596556;28;20189;-81
2022/06/12 00:14:47;;;;;;;7.35;6.30;;;;;;;15.67;96.28;98957.56;2596736;28;20049;-81
2022/06/12 00:16:05;;;;;;;7.70;6.03;;;;;;;15.75;95.66;98958.13;2596501;28;20045;-81
2022/06/12 00:17:22;;;;;;;7.43;6.20;;;;;;;15.88;96.03;98958.47;2596383;28;20053;-81
2022/06/12 00:18:38;;;;;;;6.95;5.78;;;;;;;15.75;95.40;98959.91;2596363;28;20056;-81
2022/06/12 00:19:53;;;;;;;7.47;6.18;;;;;;;15.82;95.77;98964.88;2596372;28;20046;-83
2022/06/12 00:21:10;;;;;;;8.63;5.78;;;;;;;15.79;94.62;98961.53;2596627;28;20103;-82
2022/06/12 00:22:26;;;;;;;9.32;6.28;;;;;;;15.67;95.29;98966.38;2596413;28;20081;-82
2022/06/12 00:23:56;;;;;;;7.72;5.68;;;;;;;15.70;94.64;98959.25;2596711;28;20052;-81
2022/06/12 00:25:14;;;;;;;9.40;6.47;;;;;;;15.75;94.85;98959.91;2596273;28;20474;-81
2022/06/12 00:26:39;;;;;;;7.28;5.70;;;;;;;15.70;94.37;98969.81;2596524;28;20168;-86
2022/06/12 00:27:56;;;;;;;7.82;5.82;;;;;;;15.69;94.10;98966.28;2596036;28;20115;-82
2022/06/12 00:29:33;;;;;;;6.53;5.90;;;;;;;15.72;93.56;98963.53;2596480;28;20045;-81
2022/06/12 00:30:48;;;;;;;6.97;5.80;;;;;;;15.65;94.26;98967.34;2596573;28;20120;-82
2022/06/12 00:32:24;;;;;;;5.70;5.03;;;;;;;15.66;94.08;98972.56;2596230;28;20049;-82
2022/06/12 00:33:40;;;;;;;5.97;5.35;;;;;;;15.63;93.83;98964.75;2596555;28;20384;-81
2022/06/12 00:34:57;;;;;;;9.57;5.45;;;;;;;15.65;93.98;98956.78;2596109;28;20049;-82
2022/06/12 00:36:12;;;;;;;9.15;6.25;;;;;;;15.67;94.27;98963.72;2596159;28;20049;-82
2022/06/12 00:37:29;;;;;;;7.75;6.00;;;;;;;15.68;94.01;98960.16;2596448;28;20504;-83
2022/06/12 00:38:45;;;;;;;7.15;5.63;;;;;;;15.70;94.69;98965.38;2596544;28;20741;-81
2022/06/12 00:40:03;;;;;;;6.63;5.90;;;;;;;15.68;95.54;98962.81;2595210;28;20166;-81
2022/06/12 00:41:19;;;;;;;9.85;6.20;;;;;;;15.52;95.46;98965.19;2595693;28;20072;-81
2022/06/12 00:42:46;;;;;;;6.55;5.55;;;;;;;15.41;96.55;98974.47;2596191;28;20128;-81
2022/06/12 00:44:03;;;;;;;6.60;5.88;;;;;;;15.60;95.63;98966.69;2596433;28;20516;-81
2022/06/12 00:45:37;;;;;;;6.65;5.35;;;;;;;15.66;95.20;98969.94;2596212;28;20044;-81
2022/06/12 00:47:00;;;;;;;8.32;5.88;;;;;;;15.65;95.44;98962.94;2596345;28;20389;-81
2022/06/12 00:48:29;;;;;;;;;;;;;;;15.60;96.15;98956.97;2597038;28;20526;-80
2022/06/12 00:49:52;;;;;;;8.52;5.95;;;;;;;15.56;95.74;98958.03;2596257;28;19925;-83
2022/06/12 00:51:13;;;;;;;6.85;5.72;;;;;;;15.53;96.30;98952.88;2596732;28;20430;-81
2022/06/12 00:52:35;;;;;;;8.77;6.28;;;;;;;15.48;96.99;98958.34;2596338;28;20591;-83
2022/06/12 00:53:55;;;;;;;7.63;6.00;;;;;;;15.44;97.07;98953.22;2596431;28;20045;-82
2022/06/12 00:55:43;;;;;;;8.25;5.95;;;;;;;15.42;96.87;98953.28;2596288;28;20532;-86
2022/06/12 00:57:01;;;;;;;6.85;6.07;;;;;;;15.34;97.49;98955.38;2596140;28;20423;-81
2022/06/12 00:58:22;;;;;;;8.68;6.28;;;;;;;15.30;96.91;98961.69;2596208;28;20080;-82
2022/06/12 00:59:51;;;;;;;10.05;5.95;;;;;;;15.26;97.84;98953.03;2596012;28;20412;-82
2022/06/12 01:01:11;;;;;;;8.27;5.85;;;;;;;15.21;98.31;98952.34;2596162;28;20401;-81
2022/06/12 01:02:31;;;;;;;7.88;5.95;;;;;;;15.20;98.37;98953.25;2595927;28;20620;-84
2022/06/12 01:06:59;;;;;;;8.38;6.00;;;;;;;15.17;97.13;98956.91;2596201;28;20045;-84
2022/06/12 01:08:17;;;;;;;7.30;6.00;;;;;;;15.22;96.93;98956.69;2595832;28;20150;-85
2022/06/12 01:09:38;;;;;;;8.55;5.80;;;;;;;15.28;96.94;98952.97;2595808;28;20046;-85
2022/06/12 01:10:58;;;;;;;7.55;6.50;;;;;;;15.29;97.22;98950.28;2595777;28;20124;-81
2022/06/12 01:12:18;;;;;;;7.97;6.07;;;;;;;15.34;95.71;98955.38;2595553;28;20084;-83
2022/06/12 01:13:38;;;;;;;7.90;5.57;;;;;;;15.33;95.95;98945.75;2596251;28;20047;-81
2022/06/12 01:14:58;;;;;;;7.10;5.88;;;;;;;15.36;95.96;98945.63;2596252;28;20053;-82
2022/06/12 01:16:17;;;;;;;8.32;6.20;;;;;;;15.36;96.64;98948.25;2596130;28;20148;-81
2022/06/12 01:17:34;;;;;;;6.22;5.43;;;;;;;15.35;96.89;98941.25;2595849;28;20269;-81
2022/06/12 01:18:53;;;;;;;6.90;6.20;;;;;;;15.23;97.95;98950.53;2595840;28;20420;-83
2022/06/12 01:20:14;;;;;;;6.90;5.68;;;;;;;15.19;98.53;98944.50;2595854;28;20386;-82
2022/06/12 01:21:33;;;;;;;6.35;5.75;;;;;;;15.14;98.65;98937.69;2595680;28;20085;-81
2022/06/12 01:23:17;;;;;;;7.82;6.10;;;;;;;15.13;98.68;98943.88;2596093;28;20056;-82
2022/06/12 01:24:44;;;;;;;;;;;;;;;15.10;98.55;98948.38;2596118;28;20637;-81
2022/06/12 01:26:37;;;;;;;9.30;6.22;;;;;;;15.05;97.90;98949.47;2596325;28;19933;-81
2022/06/12 01:28:32;;;;;;;6.50;5.78;;;;;;;15.02;98.09;98955.69;2595456;28;20057;-82
2022/06/12 01:30:00;;;;;;;7.20;6.13;;;;;;;14.99;98.20;98947.03;2595039;28;20056;-82
2022/06/12 01:31:19;;;;;;;7.45;5.70;;;;;;;14.97;98.36;98955.88;2595922;28;20674;-81
2022/06/12 01:32:43;;;;;;;7.68;6.00;;;;;;;14.98;98.08;98943.56;2595746;28;20053;-81
2022/06/12 01:34:08;;;;;;;8.13;6.15;;;;;;;15.01;98.04;98943.44;2596414;28;20053;-81
2022/06/12 01:35:52;;;;;;;9.00;5.72;;;;;;;15.02;98.22;98942.50;2594862;28;20396;-81
2022/06/12 01:37:31;;;;;;;8.52;6.20;;;;;;;15.01;98.62;98935.53;2595401;28;20041;-82
2022/06/12 01:38:52;;;;;;;6.97;5.80;;;;;;;14.99;99.09;98934.72;2595602;28;20053;-82
2022/06/12 01:40:32;;;;;;;8.70;6.15;;;;;;;14.99;98.70;98937.38;2595851;28;20096;-81
2022/06/12 01:42:26;;;;;;;9.38;6.30;;;;;;;14.97;98.59;98936.56;2595824;28;20049;-83
2022/06/12 01:43:54;;;;;;;8.75;6.22;;;;;;;14.91;98.08;98940.28;2595277;28;20057;-82
2022/06/12 01:45:23;;;;;;;8.00;6.43;;;;;;;14.89;98.04;98941.25;2595600;28;20054;-85
2022/06/12 01:46:56;;;;;;;10.63;7.28;;;;;;;14.86;98.50;98942.22;2595680;28;20453;-82
2022/06/12 01:48:19;;;;;;;9.80;7.45;;;;;;;14.91;98.45;98944.69;2595783;28;20053;-82
2022/06/12 01:49:54;;;;;;;9.07;6.75;;;;;;;14.95;98.47;98943.69;2595210;28;20049;-85
2022/06/12 01:51:30;;;;;;;9.95;6.15;;;;;;;14.95;99.38;98941.88;2595598;28;20176;-82
2022/06/12 01:53:03;;;;;;;9.50;6.93;;;;;;;14.82;99.29;98943.28;2595326;28;20516;-81
2022/06/12 01:54:28;;;;;;;8.07;6.75;;;;;;;14.79;99.29;98943.38;2595497;28;20053;-83
2022/06/12 01:55:54;;;;;;;12.70;6.93;;;;;;;14.73;100.00;98944.47;2595954;28;20140;-81
2022/06/12 01:57:20;;;;;;;8.23;7.13;;;;;;;14.64;100.00;98940.38;2595591;28;20080;-82
2022/06/12 01:59:03;;;;;;;9.55;6.38;;;;;;;14.60;100.00;98940.53;2595702;28;20109;-82
2022/06/12 02:00:23;;;;;;;8.05;6.90;;;;;;;14.50;100.00;98940.00;2595841;28;20056;-81
2022/06/12 02:01:47;;;;;;;8.57;6.57;;;;;;;14.44;100.00;98941.09;2595568;28;20510;-84
2022/06/12 02:03:12;;;;;;;8.52;6.70;;;;;;;14.37;100.00;98936.94;2596220;28;20064;-82
2022/06/12 02:04:44;;;;;;;7.72;6.43;;;;;;;14.21;100.00;98942.75;2595747;28;20053;-81
2022/06/12 02:06:07;;;;;;;15.52;8.63;;;;;;;14.11;100.00;98934.31;2595589;28;20128;-83
2022/06/12 02:07:35;;;;;;;9.85;6.63;;;;;;;14.07;100.00;98943.25;2595456;28;20061;-82
2022/06/12 02:09:19;;;;;;;7.53;6.65;;;;;;;13.96;100.00;98940.97;2595738;28;20054;-83
2022/06/12 02:10:41;;;;;;;8.02;6.85;;;;;;;13.93;100.00;98948.97;2595242;28;20045;-81
2022/06/12 02:13:40;;;;;;;9.25;6.95;;;;;;;14.07;100.00;98948.50;2595494;28;20164;-81
2022/06/12 02:15:06;;;;;;;10.05;6.68;;;;;;;14.03;100.00;98940.78;2595568;28;20195;-84
2022/06/12 02:16:31;;;;;;;9.27;7.18;;;;;;;14.04;100.00;98946.00;2595634;28;20117;-82
2022/06/12 02:17:52;;;;;;;9.13;7.22;;;;;;;14.07;100.00;98945.88;2595554;28;20638;-87
2022/06/12 02:19:15;;;;;;;9.70;7.40;;;;;;;14.13;100.00;98939.53;2595665;28;20042;-81
2022/06/12 02:20:37;;;;;;;10.13;7.55;;;;;;;14.15;100.00;98937.72;2595363;28;20080;-83
2022/06/12 02:21:58;;;;;;;8.48;7.10;;;;;;;14.08;100.00;98934.44;2595545;28;20085;-82
2022/06/12 02:23:27;;;;;;;10.40;7.18;;;;;;;14.02;100.00;98936.41;2595788;28;20049;-82
2022/06/12 02:24:49;;;;;;;9.60;6.25;;;;;;;14.02;100.00;98944.31;2595523;28;20053;-82
2022/06/12 02:26:06;;;;;;;;;;;;;;;13.99;100.00;98942.63;2596339;28;20123;-83
2022/06/12 02:27:30;;;;;;;7.53;6.72;;;;;;;14.02;100.00;98944.31;2595665;28;20024;-82
2022/06/12 02:28:52;;;;;;;7.35;6.55;;;;;;;14.00;100.00;98947.00;2595412;28;20053;-83
2022/06/12 02:30:17;;;;;;;7.57;6.53;;;;;;;13.87;100.00;98937.78;2595272;28;20053;-83
2022/06/12 02:31:37;;;;;;;8.13;5.95;;;;;;;13.67;100.00;98945.41;2595666;28;20057;-82
2022/06/12 02:32:58;;;;;;;8.95;6.35;;;;;;;13.60;100.00;98950.94;2595675;28;20051;-82
2022/06/12 02:34:24;;;;;;;9.73;7.00;;;;;;;13.56;100.00;98948.41;2595246;28;20053;-81
2022/06/12 02:35:49;;;;;;;10.23;6.40;;;;;;;13.59;100.00;98957.97;2595434;28;20438;-83
2022/06/12 02:37:17;;;;;;;9.95;7.25;;;;;;;13.60;100.00;98949.19;2595213;28;20045;-82
2022/06/12 02:38:52;;;;;;;6.93;6.22;;;;;;;13.52;100.00;98949.44;2595732;28;20086;-81
2022/06/12 02:40:21;;;;;;;6.72;6.00;;;;;;;13.50;100.00;98953.88;2595118;28;20061;-83
2022/06/12 02:41:44;;;;;;;7.93;6.18;;;;;;;13.47;100.00;98953.94;2596791;28;20045;-82
2022/06/12 02:43:05;;;;;;;7.80;6.28;;;;;;;13.39;100.00;98948.06;2597329;28;20400;-83
2022/06/12 02:44:47;;;;;;;7.80;6.30;;;;;;;13.39;100.00;98954.16;2597710;28;20060;-82
2022/06/12 02:46:12;;;;;;;7.82;6.38;;;;;;;13.34;100.00;98956.09;2597255;28;20052;-83
2022/06/12 02:47:32;;;;;;;7.72;6.53;;;;;;;13.33;100.00;98950.88;2597059;28;20049;-84
2022/06/12 02:48:48;;;;;;;10.65;7.15;;;;;;;13.28;100.00;98954.50;2597335;28;20057;-81
2022/06/12 02:50:06;;;;;;;9.23;6.82;;;;;;;13.34;100.00;98953.47;2597370;28;20515;-82
2022/06/12 02:51:27;;;;;;;9.55;6.88;;;;;;;13.36;100.00;98956.91;2597347;28;20049;-82
2022/06/12 02:52:50;;;;;;;7.20;6.32;;;;;;;13.39;100.00;98956.78;2597396;28;20064;-81
2022/06/12 02:54:32;;;;;;;8.43;7.03;;;;;;;13.48;100.00;98955.72;2597544;28;20041;-84
2022/06/12 02:55:58;;;;;;;10.73;6.65;;;;;;;13.64;100.00;98956.06;2597032;28;20485;-81
2022/06/12 02:57:19;;;;;;;9.32;7.00;;;;;;;13.66;100.00;98956.84;2597075;28;20135;-88
2022/06/12 02:58:54;;;;;;;8.60;6.50;;;;;;;13.60;100.00;98954.44;2597278;28;20056;-84
2022/06/12 03:00:28;;;;;;;8.60;6.90;;;;;;;13.57;100.00;98949.28;2596684;28;20104;-82
2022/06/12 03:01:53;;;;;;;8.32;6.07;;;;;;;13.51;100.00;98954.72;2597343;28;20073;-81
2022/06/12 03:03:27;;;;;;;8.32;6.68;;;;;;;13.52;100.00;98953.81;2597669;28;20046;-81
2022/06/12 03:04:50;;;;;;;7.32;6.32;;;;;;;13.50;100.00;98953.88;2597088;28;20057;-82
2022/06/12 03:06:06;;;;;;;7.43;6.32;;;;;;;13.41;100.00;98956.75;2597320;28;20431;-88
2022/06/12 03:07:22;;;;;;;7.88;6.63;;;;;;;13.35;100.00;98957.81;2597320;28;20050;-82
2022/06/12 03:08:43;;;;;;;7.72;6.43;;;;;;;13.39;100.00;98953.31;2597087;28;20081;-83
2022/06/12 03:10:04;;;;;;;7.20;6.32;;;;;;;13.37;100.00;98955.97;2597556;28;20049;-82
2022/06/12 03:11:25;;;;;;;7.25;6.35;;;;;;;13.33;100.00;98959.63;2597581;28;20057;-81
2022/06/12 03:12:41;;;;;;;7.70;6.80;;;;;;;13.35;100.00;98957.81;2597317;28;20060;-85
2022/06/12 03:13:58;;;;;;;8.90;6.75;;;;;;;13.42;100.00;98956.72;2597077;28;20543;-82
2022/06/12 03:15:45;;;;;;;9.27;6.22;;;;;;;13.45;100.00;98955.78;2597135;28;20051;-82
2022/06/12 03:17:02;;;;;;;10.07;6.18;;;;;;;13.45;100.00;98960.19;2581112;28;20487;-82
2022/06/12 03:18:39;;;;;;;8.13;6.22;;;;;;;13.49;100.00;98961.81;2596240;28;20061;-84
2022/06/12 03:19:56;;;;;;;8.15;6.13;;;;;;;13.52;100.00;98961.69;2596443;28;20049;-85
2022/06/12 03:21:49;;;;;;;6.88;6.18;;;;;;;13.54;100.00;98958.13;2597190;28;20522;-82
2022/06/12 03:23:22;;;;;;;8.70;6.25;;;;;;;13.61;100.00;98965.81;2596929;28;20046;-82
2022/06/12 03:24:57;;;;;;;8.00;6.45;;;;;;;13.61;100.00;98958.78;2596997;28;20049;-83
2022/06/12 03:26:34;;;;;;;8.57;5.90;;;;;;;13.59;100.00;98962.38;2597267;28;20050;-82
2022/06/12 03:27:58;;;;;;;10.27;6.15;;;;;;;13.37;100.00;98958.63;2596760;28;20057;-82
2022/06/12 03:29:23;;;;;;;6.63;5.93;;;;;;;13.41;100.00;98959.38;2596994;28;20080;-82
2022/06/12 03:30:53;;;;;;;7.70;6.45;;;;;;;13.41;100.00;98960.25;2597310;28;20060;-85
2022/06/12 03:32:30;;;;;;;6.95;6.30;;;;;;;13.49;100.00;98961.81;2597167;28;20575;-83
2022/06/12 03:34:07;;;;;;;7.25;5.88;;;;;;;13.51;100.00;98965.25;2597181;28;20394;-81
2022/06/12 03:35:38;;;;;;;7.75;6.47;;;;;;;13.57;100.00;98965.06;2596887;28;20420;-81
2022/06/12 03:37:05;;;;;;;8.70;7.35;;;;;;;13.65;100.00;98968.28;2597130;28;20072;-82
2022/06/12 03:38:40;;;;;;;8.75;6.50;;;;;;;13.69;100.00;98964.69;2596734;28;20055;-82
2022/06/12 03:40:08;;;;;;;8.05;6.28;;;;;;;13.71;100.00;98964.59;2591634;28;20635;-82
2022/06/12 03:41:26;;;;;;;7.25;6.05;;;;;;;13.67;100.00;98955.94;2596646;28;20480;-82
2022/06/12 03:42:52;;;;;;;7.22;6.35;;;;;;;13.63;100.00;98964.84;2597036;28;20208;-85
2022/06/12 03:44:14;;;;;;;7.55;6.10;;;;;;;13.61;100.00;98956.16;2596872;28;20046;-83
2022/06/12 03:46:01;;;;;;;10.20;6.78;;;;;;;13.58;100.00;98956.25;2598111;28;20399;-81
2022/06/12 03:47:43;;;;;;;9.10;6.50;;;;;;;13.52;100.00;98959.94;2597222;28;20045;-82
2022/06/12 03:49:18;;;;;;;7.82;6.03;;;;;;;13.55;100.00;98959.84;2596831;28;20052;-81
2022/06/12 03:50:41;;;;;;;8.57;6.50;;;;;;;13.62;100.00;98954.38;2596537;28;20060;-81
2022/06/12 03:51:57;;;;;;;8.63;6.30;;;;;;;13.78;100.00;98957.38;2596788;28;20075;-82
2022/06/12 03:53:28;;;;;;;7.80;6.97;;;;;;;13.80;100.00;98958.19;2595906;28;20146;-82
2022/06/12 03:54:59;;;;;;;8.98;7.00;;;;;;;13.79;100.00;98953.84;2596501;28;20056;-81
2022/06/12 03:58:26;;;;;;;6.47;5.60;;;;;;;13.84;100.00;98954.56;2596828;28;20681;-82
2022/06/12 03:59:46;;;;;;;7.78;6.07;;;;;;;13.88;100.00;98955.28;2596844;28;20385;-82
2022/06/12 04:01:03;;;;;;;7.05;5.88;;;;;;;13.91;100.00;98958.69;2596698;28;20069;-84
2022/06/12 04:02:24;;;;;;;6.40;5.68;;;;;;;13.98;100.00;98956.72;2596420;28;20050;-82
2022/06/12 04:03:44;;;;;;;7.70;6.45;;;;;;;14.03;100.00;98951.31;2596566;28;20054;-86
2022/06/12 04:05:01;;;;;;;10.40;6.05;;;;;;;14.07;100.00;98952.91;2596665;28;20566;-82
2022/06/12 04:06:25;;;;;;;6.63;5.90;;;;;;;14.03;100.00;98952.13;2596351;28;20412;-82
2022/06/12 04:07:46;;;;;;;7.07;6.10;;;;;;;14.03;100.00;98953.94;2596562;28;20053;-81
2022/06/12 04:09:06;;;;;;;7.68;5.68;;;;;;;13.98;100.00;98951.44;2596449;28;20053;-82
2022/06/12 04:10:26;;;;;;;6.53;5.80;;;;;;;13.96;100.00;98955.91;2596664;28;20053;-80
2022/06/12 04:11:56;;;;;;;7.53;6.72;;;;;;;14.00;100.00;98956.69;2596583;28;20060;-83
2022/06/12 04:13:15;;;;;;;9.32;6.55;;;;;;;14.01;100.00;98953.13;2596674;28;20045;-81
2022/06/12 04:14:39;;;;;;;7.07;6.38;;;;;;;14.01;100.00;98958.41;2596553;28;20434;-82
2022/06/12 04:16:17;;;;;;;8.93;6.30;;;;;;;14.01;100.00;98959.25;2596580;28;20076;-81
2022/06/12 04:17:33;;;;;;;8.60;6.13;;;;;;;14.00;100.00;98954.03;2595785;28;20484;-82
2022/06/12 04:18:50;;;;;;;7.68;6.13;;;;;;;13.94;100.00;98950.69;2596601;28;20104;-86
2022/06/12 04:20:12;;;;;;;8.60;6.65;;;;;;;13.87;100.00;98956.22;2595571;28;20084;-82
2022/06/12 04:21:35;;;;;;;8.15;5.93;;;;;;;13.78;100.00;98952.13;2596575;28;20057;-81
2022/06/12 04:23:01;;;;;;;10.23;7.50;;;;;;;13.77;100.00;98955.66;2596533;28;20049;-81
2022/06/12 04:24:25;;;;;;;7.45;6.28;;;;;;;13.73;100.00;98949.63;2596907;28;20107;-82
2022/06/12 04:25:50;;;;;;;7.85;6.40;;;;;;;13.81;100.00;98949.38;2596542;28;20053;-85
2022/06/12 04:27:31;;;;;;;8.73;6.32;;;;;;;13.88;100.00;98943.00;2596266;28;20042;-81
2022/06/12 04:28:56;;;;;;;8.13;6.38;;;;;;;13.95;100.00;98948.94;2596037;28;20072;-81
2022/06/12 04:30:19;;;;;;;7.20;6.50;;;;;;;14.01;100.00;98947.88;2596181;28;20080;-81
2022/06/12 04:31:35;;;;;;;7.03;6.32;;;;;;;14.07;100.00;98952.91;2596625;28;20050;-81
2022/06/12 04:33:15;;;;;;;6.72;5.90;;;;;;;14.12;100.00;98951.00;2596345;28;20045;-81
2022/06/12 04:34:37;;;;;;;7.35;5.50;;;;;;;14.19;100.00;98949.84;2595960;28;20057;-81
2022/06/12 04:35:59;;;;;;;7.80;5.88;;;;;;;14.26;100.00;98954.00;2596207;28;20132;-81
2022/06/12 04:37:22;;;;;;;6.78;6.07;;;;;;;14.34;100.00;98951.09;2595976;28;20053;-81
2022/06/12 04:38:39;;;;;;;8.60;6.10;;;;;;;14.35;100.00;98951.94;2596165;28;20053;-81
2022/06/12 04:39:55;;;;;;;7.43;6.10;;;;;;;14.39;100.00;98950.94;2596007;28;20172;-81
2022/06/12 04:41:20;;;;;;;7.93;5.93;;;;;;;14.47;100.00;98955.94;2595714;28;20073;-84
2022/06/12 04:42:36;;;;;;;7.30;5.55;;;;;;;14.46;100.00;98948.91;2596396;28;21011;-82
2022/06/12 04:43:52;;;;;;;6.18;5.57;;;;;;;14.55;100.00;98949.47;2596436;28;20049;-81
2022/06/12 04:45:08;;;;;;;7.20;5.82;;;;;;;14.58;100.00;98947.66;2595669;28;20102;-81
2022/06/12 04:46:25;;;;;;;6.40;5.68;;;;;;;14.62;100.00;98950.13;2596198;28;20075;-81
2022/06/12 04:47:40;;;;;;;8.68;6.00;;;;;;;14.63;100.00;98948.31;2596123;28;20994;-83
2022/06/12 04:48:57;;;;;;;6.47;5.72;;;;;;;14.61;100.00;98950.16;2596473;28;20060;-81
2022/06/12 04:50:15;;;;;;;7.72;5.85;;;;;;;14.62;100.00;98955.38;2596120;28;20055;-81
2022/06/12 04:51:32;;;;;;;6.40;5.80;;;;;;;14.65;100.00;98949.13;2596191;28;20099;-80
2022/06/12 04:52:48;;;;;;;9.40;6.07;;;;;;;14.71;100.00;98943.66;2596272;28;20085;-88
2022/06/12 04:54:03;;;;;;;7.53;6.00;;;;;;;14.79;100.00;98943.38;2596154;28;20056;-81
2022/06/12 04:55:19;;;;;;;7.00;6.30;;;;;;;14.87;100.00;98943.09;2596435;28;20049;-83
2022/06/12 04:56:34;;;;;;;7.10;6.40;;;;;;;14.79;100.00;98938.97;2596237;28;20076;-80
2022/06/12 04:57:50;;;;;;;7.50;5.97;;;;;;;14.80;100.00;98947.75;2595375;28;20476;-84
2022/06/12 04:59:07;;;;;;;9.45;6.15;;;;;;;14.83;100.00;98951.13;2595134;28;20607;-81
2022/06/12 05:00:22;;;;;;;9.98;6.60;;;;;;;14.90;100.00;98942.97;2595621;28;20046;-80
2022/06/12 05:01:38;;;;;;;8.45;6.25;;;;;;;14.95;100.00;98935.78;2594743;28;20408;-85
2022/06/12 05:02:54;;;;;;;7.82;5.60;;;;;;;14.96;100.00;98943.59;2595422;28;20045;-82
2022/06/12 05:04:10;;;;;;;8.60;6.40;;;;;;;14.99;100.00;98942.63;2595069;28;20054;-82
2022/06/12 05:05:26;;;;;;;7.00;6.30;;;;;;;15.04;100.00;98940.69;2594508;28;20053;-79
2022/06/12 05:06:43;;;;;;;7.28;6.00;;;;;;;15.06;99.95;98940.63;2595439;28;20830;-80
2022/06/12 05:07:59;;;;;;;6.55;5.45;;;;;;;15.10;99.40;98943.09;2595095;28;20049;-80
2022/06/12 05:09:14;;;;;;;8.10;5.90;;;;;;;15.22;99.13;98944.38;2595921;28;20075;-80
2022/06/12 05:10:30;;;;;;;8.82;5.82;;;;;;;15.32;98.70;98944.88;2596166;28;20479;-81
2022/06/12 05:11:46;;;;;;;7.00;5.60;;;;;;;15.36;96.86;98938.53;2596029;28;20054;-80
2022/06/12 05:13:02;;;;;;;7.55;5.03;;;;;;;15.46;97.04;98946.09;2596048;28;20053;-80
2022/06/12 05:14:18;;;;;;;5.97;5.38;;;;;;;15.48;96.92;98938.97;2594978;28;20054;-80
2022/06/12 05:15:34;;;;;;;6.35;5.75;;;;;;;15.57;97.44;98943.91;2595826;28;20049;-81
2022/06/12 05:16:59;;;;;;;8.40;5.70;;;;;;;15.66;96.55;98940.03;2595399;28;20072;-80
2022/06/12 05:18:17;;;;;;;7.47;5.75;;;;;;;15.72;96.17;98938.91;2595691;28;20566;-81
2022/06/12 05:19:37;;;;;;;6.22;5.63;;;;;;;15.70;96.23;98933.69;2595867;28;20067;-80
2022/06/12 05:20:52;;;;;;;6.85;5.72;;;;;;;15.72;96.64;98937.16;2595854;28;20516;-80
2022/06/12 05:22:09;;;;;;;6.47;5.85;;;;;;;15.73;95.99;98938.00;2595975;28;20128;-81
2022/06/12 05:23:25;;;;;;;6.38;5.78;;;;;;;15.76;96.16;98935.22;2594880;28;20538;-82
2022/06/12 05:24:42;;;;;;;6.40;5.80;;;;;;;15.80;95.95;98937.66;2596220;28;20057;-80
2022/06/12 05:25:58;;;;;;;6.15;5.53;;;;;;;15.87;95.92;98937.44;2595922;28;20052;-80
2022/06/12 05:27:18;;;;;;;6.65;5.47;;;;;;;15.94;94.46;98933.63;2595988;28;20140;-80
2022/06/12 05:28:33;;;;;;;6.53;5.25;;;;;;;16.00;94.23;98936.03;2595262;28;20064;-82
2022/06/12 05:29:50;;;;;;;7.30;5.70;;;;;;;16.11;95.01;98943.47;2595095;28;20515;-80
2022/06/12 05:31:06;;;;;;;6.53;5.32;;;;;;;16.18;94.00;98939.63;2594671;28;20049;-82
2022/06/12 05:32:22;;;;;;;7.97;6.18;;;;;;;16.33;94.22;98938.13;2595174;28;20056;-80
2022/06/12 05:33:39;;;;;;;5.88;5.38;;;;;;;16.41;93.64;98939.56;2595112;28;20045;-81
2022/06/12 05:34:54;;;;;;;6.47;5.05;;;;;;;16.27;93.95;98938.38;2594514;28;20517;-80
2022/06/12 05:36:13;;;;;;;6.88;5.03;;;;;;;16.28;93.88;98940.13;2595014;28;20059;-80
2022/06/12 05:37:28;;;;;;;8.50;5.32;;;;;;;16.26;93.36;98939.31;2594516;28;20073;-84
2022/06/12 05:38:45;;;;;;;8.20;5.57;;;;;;;16.28;93.05;98934.84;2594095;28;20045;-81
2022/06/12 05:40:03;;;;;;;8.07;5.45;;;;;;;16.36;93.42;98931.88;2594769;28;20735;-80
2022/06/12 05:41:19;;;;;;;6.85;5.57;;;;;;;16.45;93.04;98931.44;2595279;28;20052;-80
2022/06/12 05:42:34;;;;;;;7.70;5.90;;;;;;;16.43;92.98;98928.00;2594877;28;20497;-80
2022/06/12 05:43:50;;;;;;;8.15;5.68;;;;;;;16.41;93.56;98934.28;2595157;28;20049;-81
2022/06/12 05:45:09;;;;;;;8.32;5.43;;;;;;;16.44;93.30;98932.38;2594980;28;20068;-80
2022/06/12 05:46:26;;;;;;;6.28;5.68;;;;;;;16.59;92.54;98927.31;2593841;28;20049;-80
2022/06/12 05:47:55;;;;;;;6.80;5.75;;;;;;;16.79;91.52;98929.94;2594430;28;20065;-80
2022/06/12 05:49:11;;;;;;;7.45;5.28;;;;;;;16.78;91.90;98936.16;2594823;28;20658;-83
2022/06/12 05:50:30;;;;;;;6.20;5.60;;;;;;;16.81;91.45;98937.78;2593342;28;20053;-80
2022/06/12 05:51:46;;;;;;;8.25;5.00;;;;;;;16.82;91.92;98936.00;2590859;28;20099;-81
2022/06/12 05:53:02;;;;;;;7.03;5.10;;;;;;;16.89;91.34;98934.78;2593373;28;20480;-84
2022/06/12 05:54:17;;;;;;;6.22;5.40;;;;;;;17.05;90.64;98927.91;2594405;28;20089;-81
2022/06/12 05:55:33;;;;;;;6.25;5.60;;;;;;;17.11;90.97;98934.66;2594612;28;20580;-80
2022/06/12 05:56:49;;;;;;;7.68;5.40;;;;;;;17.13;90.62;98932.84;2594568;28;20064;-86
2022/06/12 05:58:07;;;;;;;6.22;5.10;;;;;;;17.17;89.95;98930.88;2594481;28;20132;-81
2022/06/12 05:59:23;;;;;;;6.90;5.32;;;;;;;17.29;88.31;98926.81;2594861;28;20050;-81
2022/06/12 06:00:39;;;;;;;7.13;5.45;;;;;;;17.34;88.93;98928.31;2594165;28;20064;-80
2022/06/12 06:01:54;;;;;;;6.22;5.63;;;;;;;17.40;88.56;98927.16;2594714;28;20048;-81
2022/06/12 06:03:10;;;;;;;5.65;5.07;;;;;;;17.48;88.65;98924.97;2594612;28;20060;-80
2022/06/12 06:04:26;;;;;;;6.85;5.80;;;;;;;17.53;88.24;98929.19;2594732;28;20052;-81
2022/06/12 06:05:44;;;;;;;6.07;5.15;;;;;;;17.56;88.02;98921.94;2594492;28;20049;-81
2022/06/12 06:07:00;;;;;;;6.25;4.90;;;;;;;17.60;89.43;98918.25;2594676;28;20042;-82
2022/06/12 06:08:17;;;;;;;6.22;5.30;;;;;;;17.63;87.74;98926.03;2594832;28;20459;-81
2022/06/12 06:09:33;;;;;;;6.28;5.68;;;;;;;17.74;87.37;98925.47;2594655;28;20053;-81
2022/06/12 06:10:48;;;;;;;6.07;5.50;;;;;;;17.82;86.96;98914.50;2594221;28;20045;-81
2022/06/12 06:12:04;;;;;;;6.03;5.53;;;;;;;17.91;86.53;98922.00;2594416;28;20042;-82
2022/06/12 06:13:20;;;;;;;5.85;5.28;;;;;;;17.87;85.39;98920.41;2594243;28;20424;-79
2022/06/12 06:14:36;;;;;;;8.40;5.07;;;;;;;17.91;85.87;98922.00;2594984;28;20056;-80
2022/06/12 06:15:52;;;;;;;8.10;5.28;;;;;;;18.05;86.84;98913.34;2594739;28;20049;-80
2022/06/12 06:17:08;;;;;;;7.88;5.45;;;;;;;18.00;85.75;98917.16;2596363;28;20076;-80
2022/06/12 06:18:24;;;;;;;6.80;5.35;;;;;;;18.07;85.63;98919.44;2596313;28;20099;-81
2022/06/12 06:19:39;;;;;;;7.03;5.40;;;;;;;18.21;84.22;98925.81;2594621;28;20119;-80
2022/06/12 06:20:55;;;;;;;10.48;5.32;;;;;;;18.31;84.15;98921.75;2596334;28;20052;-84
2022/06/12 06:22:15;;;;;;;6.53;5.20;;;;;;;18.27;84.40;98925.50;2596615;28;20445;-81
2022/06/12 06:23:31;;;;;;;7.45;5.75;;;;;;;18.39;84.55;98925.81;2596142;28;20053;-82
2022/06/12 06:24:47;;;;;;;6.47;5.13;;;;;;;18.30;84.47;98927.13;2597017;28;20139;-80
2022/06/12 06:26:03;;;;;;;6.57;5.05;;;;;;;18.46;85.07;98919.22;2596409;28;20107;-80
2022/06/12 06:27:18;;;;;;;5.93;5.30;;;;;;;18.47;84.02;98919.16;2596695;28;20534;-81
2022/06/12 06:28:34;;;;;;;6.13;5.30;;;;;;;18.44;83.70;98921.97;2597004;28;20058;-80
2022/06/12 06:29:50;;;;;;;6.68;4.90;;;;;;;18.53;84.30;98925.06;2597052;28;20111;-81
2022/06/12 06:31:06;;;;;;;6.28;5.55;;;;;;;18.64;83.67;98923.53;2597366;28;20107;-81
2022/06/12 06:32:22;;;;;;;8.52;5.20;;;;;;;18.70;83.39;98922.38;2597758;28;20111;-80